Time;durP1;ratioP1;P1;durP2;ratioP2;P2;SDS_P1;SDS_P2;PMS_P1;PMS_P2;Temp;Humidity;BMP_temperature;BMP_pressure;BME280_temperature;BME280_humidity;BME280_pressure;Samples;Min_cycle;Max_cycle;Signal;HPM_P1;HPM_P2
2021/06/13 00:01:22;;;;;;;9.40;7.07;;;18.30;99.90;;;;;;5100980;28;20033;-73
2021/06/13 00:03:49;;;;;;;7.60;6.90;;;18.30;99.90;;;;;;5099102;28;20032;-73
2021/06/13 00:06:15;;;;;;;10.13;7.55;;;18.30;99.90;;;;;;5096185;28;20099;-73
2021/06/13 00:08:41;;;;;;;10.40;7.32;;;18.20;99.90;;;;;;5094288;28;20490;-74
2021/06/13 00:11:07;;;;;;;9.88;6.70;;;18.30;99.90;;;;;;5077355;28;20498;-74
2021/06/13 00:13:33;;;;;;;10.32;7.55;;;18.20;99.90;;;;;;5094213;28;20107;-72
2021/06/13 00:15:59;;;;;;;11.68;6.85;;;18.20;99.90;;;;;;5094325;28;20032;-73
2021/06/13 00:18:25;;;;;;;10.60;7.50;;;18.10;99.90;;;;;;5093773;28;20085;-74
2021/06/13 00:20:52;;;;;;;9.57;7.07;;;18.10;99.90;;;;;;5074451;28;20071;-73
2021/06/13 00:23:18;;;;;;;7.80;6.53;;;18.10;99.90;;;;;;5093910;28;20062;-72
2021/06/13 00:25:45;;;;;;;7.35;6.65;;;18.10;99.90;;;;;;5093878;28;20028;-73
2021/06/13 00:28:10;;;;;;;9.73;6.93;;;18.00;99.90;;;;;;5094036;28;20035;-73
2021/06/13 00:30:36;;;;;;;7.53;6.53;;;18.00;99.90;;;;;;5074861;28;20028;-72
2021/06/13 00:33:03;;;;;;;10.18;7.22;;;17.90;99.90;;;;;;5093682;28;20481;-72
2021/06/13 00:35:28;;;;;;;7.35;6.50;;;18.00;99.90;;;;;;5093130;28;20571;-72
2021/06/13 00:37:54;;;;;;;7.20;6.50;;;18.00;99.90;;;;;;5093906;28;20024;-73
2021/06/13 00:40:22;;;;;;;14.07;7.65;;;18.00;99.90;;;;;;5093434;28;20169;-73
2021/06/13 00:42:48;;;;;;;9.73;6.65;;;18.00;99.90;;;;;;5094180;28;20023;-74
2021/06/13 00:45:14;;;;;;;7.95;7.15;;;18.00;99.90;;;;;;5093952;28;20170;-74
2021/06/13 00:47:41;;;;;;;10.32;7.55;;;18.00;99.90;;;;;;5093497;28;20027;-73
2021/06/13 00:50:22;;;;;;;7.43;6.72;;;17.90;99.90;;;;;;5093083;28;20034;-73
2021/06/13 00:52:48;;;;;;;11.53;7.63;;;17.90;99.90;;;;;;5095723;28;20036;-74
2021/06/13 00:55:14;;;;;;;9.50;7.15;;;17.90;99.90;;;;;;5096182;28;20034;-73
2021/06/13 00:57:40;;;;;;;10.32;7.00;;;17.90;99.90;;;;;;5096715;28;20030;-73
2021/06/13 01:00:07;;;;;;;11.85;8.13;;;17.80;99.90;;;;;;5094410;28;20024;-73
2021/06/13 01:02:33;;;;;;;10.07;7.40;;;17.70;99.90;;;;;;5093704;28;20028;-73
2021/06/13 01:04:59;;;;;;;8.93;7.03;;;17.50;99.90;;;;;;5092605;28;20024;-73
2021/06/13 01:07:38;;;;;;;8.38;7.30;;;17.40;99.90;;;;;;5092898;28;20105;-72
2021/06/13 01:10:10;;;;;;;10.48;7.88;;;17.30;99.90;;;;;;5074342;28;20043;-73
2021/06/13 01:12:47;;;;;;;9.00;7.10;;;17.20;99.90;;;;;;5074561;28;20058;-73
2021/06/13 01:15:16;;;;;;;8.60;7.35;;;17.20;99.90;;;;;;5092255;28;20043;-73
2021/06/13 01:17:59;;;;;;;8.82;7.57;;;17.10;99.90;;;;;;5092384;28;20024;-72
2021/06/13 01:20:37;;;;;;;;;;;17.00;99.90;;;;;;5091984;28;20024;-72
2021/06/13 01:23:26;;;;;;;9.73;7.13;;;16.90;99.90;;;;;;5092181;28;19927;-73
2021/06/13 01:26:17;;;;;;;10.98;7.50;;;16.90;99.90;;;;;;5092265;28;20048;-73
2021/06/13 01:29:00;;;;;;;8.35;7.50;;;16.90;99.90;;;;;;5092507;28;20016;-73
2021/06/13 01:31:32;;;;;;;10.00;7.60;;;16.80;99.90;;;;;;5091705;28;20051;-72
2021/06/13 01:33:59;;;;;;;;;;;16.70;99.90;;;;;;5092631;28;20028;-72
2021/06/13 01:36:26;;;;;;;12.68;7.88;;;16.60;99.90;;;;;;5091930;28;20392;-73
2021/06/13 01:38:53;;;;;;;12.45;7.93;;;16.70;99.90;;;;;;5092039;28;20024;-72
2021/06/13 01:41:24;;;;;;;10.90;7.28;;;16.70;99.90;;;;;;5091167;28;20028;-73
2021/06/13 01:43:54;;;;;;;12.68;7.72;;;16.70;99.90;;;;;;5092100;28;20389;-73
2021/06/13 01:46:21;;;;;;;8.45;7.13;;;16.70;99.90;;;;;;5091716;28;20023;-73
2021/06/13 01:48:47;;;;;;;11.68;8.48;;;16.60;99.90;;;;;;5092042;28;20031;-71
2021/06/13 01:51:13;;;;;;;7.93;7.22;;;16.70;99.90;;;;;;5090633;28;20051;-74
2021/06/13 01:53:42;;;;;;;8.05;7.07;;;16.70;99.90;;;;;;5091834;28;20420;-74
2021/06/13 01:56:12;;;;;;;8.05;7.25;;;16.60;99.90;;;;;;5091911;28;20381;-75
2021/06/13 01:58:40;;;;;;;8.80;7.57;;;16.60;99.90;;;;;;5090625;28;20031;-74
2021/06/13 02:01:10;;;;;;;9.75;7.65;;;16.70;99.90;;;;;;5089829;28;20039;-73
2021/06/13 02:03:37;;;;;;;10.35;7.80;;;16.70;99.90;;;;;;5091462;28;20058;-73
2021/06/13 02:06:04;;;;;;;14.15;8.10;;;16.70;99.90;;;;;;5091340;28;20020;-73
2021/06/13 02:08:33;;;;;;;10.50;7.25;;;16.60;99.90;;;;;;5094092;28;20511;-73
2021/06/13 02:11:00;;;;;;;10.02;7.13;;;16.50;99.90;;;;;;5094222;28;20047;-74
2021/06/13 02:13:27;;;;;;;9.63;6.82;;;16.40;99.90;;;;;;5095026;28;20020;-74
2021/06/13 02:15:55;;;;;;;8.65;7.30;;;16.30;99.90;;;;;;5095311;28;20500;-74
2021/06/13 02:18:23;;;;;;;12.77;7.47;;;16.20;99.90;;;;;;5094457;28;20036;-74
2021/06/13 02:20:49;;;;;;;12.30;7.45;;;16.20;99.90;;;;;;5074164;28;20451;-74
2021/06/13 02:23:15;;;;;;;8.93;7.00;;;16.20;99.90;;;;;;5096527;28;20031;-73
2021/06/13 02:25:41;;;;;;;8.43;7.53;;;16.20;99.90;;;;;;5077145;28;20024;-75
2021/06/13 02:28:08;;;;;;;8.10;7.28;;;16.20;99.90;;;;;;5095258;28;20028;-74
2021/06/13 02:30:37;;;;;;;10.88;7.13;;;16.20;99.90;;;;;;5092854;28;20020;-74
2021/06/13 02:33:05;;;;;;;9.40;6.95;;;16.20;99.90;;;;;;5091735;28;20036;-73
2021/06/13 02:35:31;;;;;;;7.70;6.85;;;16.20;99.90;;;;;;5093350;28;20107;-73
2021/06/13 02:37:58;;;;;;;8.57;7.22;;;16.20;99.90;;;;;;5096610;28;20060;-73
2021/06/13 02:40:25;;;;;;;13.38;7.40;;;16.20;99.90;;;;;;5099717;28;20056;-73
2021/06/13 02:42:51;;;;;;;11.63;7.82;;;16.20;99.90;;;;;;5091407;28;20031;-73
2021/06/13 02:45:22;;;;;;;7.88;7.00;;;16.10;99.90;;;;;;5091760;28;20028;-73
2021/06/13 02:47:50;;;;;;;9.82;7.60;;;16.10;99.90;;;;;;5091289;28;20595;-73
2021/06/13 02:50:16;;;;;;;9.63;7.63;;;16.10;99.90;;;;;;5090401;28;20044;-71
2021/06/13 02:52:54;;;;;;;10.57;7.55;;;16.00;99.90;;;;;;5091196;28;20409;-73
2021/06/13 02:55:23;;;;;;;9.32;7.78;;;15.90;99.90;;;;;;5072958;28;20077;-73
2021/06/13 02:57:55;;;;;;;10.93;8.13;;;15.90;99.90;;;;;;5091327;28;20024;-73
2021/06/13 03:00:23;;;;;;;10.43;8.50;;;15.90;99.90;;;;;;5090645;28;20389;-73
2021/06/13 03:02:51;;;;;;;17.50;9.10;;;15.80;99.90;;;;;;5091451;28;20390;-74
2021/06/13 03:05:20;;;;;;;10.77;8.15;;;15.70;99.90;;;;;;5090490;28;20089;-74
2021/06/13 03:07:47;;;;;;;9.65;8.50;;;15.60;99.90;;;;;;5090930;28;20454;-72
2021/06/13 03:10:14;;;;;;;15.88;9.15;;;15.50;99.90;;;;;;5092728;28;20028;-72
2021/06/13 03:12:41;;;;;;;9.40;8.35;;;15.50;99.90;;;;;;5094491;28;20040;-74
2021/06/13 03:15:07;;;;;;;14.43;9.80;;;15.40;99.90;;;;;;5095087;28;20035;-74
2021/06/13 03:17:36;;;;;;;13.73;9.40;;;15.50;99.90;;;;;;5095838;28;20027;-74
2021/06/13 03:20:04;;;;;;;13.88;9.75;;;15.50;99.90;;;;;;5094115;28;20028;-73
2021/06/13 03:22:33;;;;;;;14.50;9.75;;;15.50;99.90;;;;;;5095736;28;20107;-72
2021/06/13 03:24:59;;;;;;;11.10;8.65;;;15.50;99.90;;;;;;5094594;28;20115;-73
2021/06/13 03:27:25;;;;;;;14.50;9.55;;;15.50;99.90;;;;;;5094564;28;20042;-73
2021/06/13 03:29:52;;;;;;;12.80;9.45;;;15.40;99.90;;;;;;5093806;28;20031;-73
2021/06/13 03:32:18;;;;;;;12.95;9.55;;;15.40;99.90;;;;;;5094312;28;20020;-72
2021/06/13 03:34:44;;;;;;;10.63;9.52;;;15.40;99.90;;;;;;5094400;28;20024;-72
2021/06/13 03:37:12;;;;;;;13.85;9.55;;;15.30;99.90;;;;;;5094060;28;20020;-72
2021/06/13 03:39:41;;;;;;;20.17;10.07;;;15.30;99.90;;;;;;5075398;28;20031;-72
2021/06/13 03:42:08;;;;;;;11.43;9.85;;;15.30;99.90;;;;;;5094092;28;20024;-73
2021/06/13 03:44:34;;;;;;;11.05;9.85;;;15.30;99.90;;;;;;5094199;28;20032;-73
2021/06/13 03:47:01;;;;;;;13.38;9.52;;;15.30;99.90;;;;;;5094011;28;20069;-73
2021/06/13 03:49:27;;;;;;;13.52;10.50;;;15.20;99.90;;;;;;5093269;28;20115;-72
2021/06/13 03:51:54;;;;;;;10.63;9.07;;;15.20;99.90;;;;;;5092778;28;20381;-73
2021/06/13 03:54:20;;;;;;;10.85;9.10;;;15.20;99.90;;;;;;5093998;28;20055;-73
2021/06/13 03:56:51;;;;;;;16.38;10.43;;;15.20;99.90;;;;;;5075772;28;20069;-73
2021/06/13 03:59:19;;;;;;;11.35;9.50;;;15.20;99.90;;;;;;5094028;28;20029;-73
2021/06/13 04:01:46;;;;;;;14.07;10.15;;;15.10;99.90;;;;;;5093238;28;20020;-73
2021/06/13 04:04:15;;;;;;;13.80;10.60;;;15.20;99.90;;;;;;5093830;28;20020;-73
2021/06/13 04:06:44;;;;;;;15.05;10.57;;;15.10;99.90;;;;;;5092840;28;20501;-74
2021/06/13 04:09:12;;;;;;;12.80;9.70;;;15.10;99.90;;;;;;5093577;28;20028;-73
2021/06/13 04:11:39;;;;;;;11.57;9.98;;;15.10;99.90;;;;;;5092974;28;20028;-73
2021/06/13 04:14:06;;;;;;;15.55;10.48;;;15.10;99.90;;;;;;5093278;28;20028;-72
2021/06/13 04:16:33;;;;;;;15.18;10.00;;;15.10;99.90;;;;;;5106919;22;20524;-74
2021/06/13 04:18:59;;;;;;;11.63;9.88;;;15.00;99.90;;;;;;5109524;28;20024;-74
2021/06/13 04:21:26;;;;;;;14.75;9.57;;;15.20;99.90;;;;;;5114431;28;20055;-74
2021/06/13 04:23:52;;;;;;;11.55;9.50;;;15.20;99.90;;;;;;5117369;28;20051;-73
2021/06/13 04:26:21;;;;;;;14.18;10.13;;;15.30;99.90;;;;;;5116532;28;20035;-73
2021/06/13 04:28:49;;;;;;;11.90;10.13;;;15.40;99.90;;;;;;5117152;28;20192;-74
2021/06/13 04:31:16;;;;;;;10.27;9.15;;;15.50;99.90;;;;;;5117063;28;20028;-72
2021/06/13 04:33:48;;;;;;;11.48;9.85;;;15.50;99.90;;;;;;5116664;28;20369;-75
2021/06/13 04:36:15;;;;;;;12.55;9.88;;;15.60;99.90;;;;;;5091330;28;20091;-73
2021/06/13 04:38:41;;;;;;;11.25;8.73;;;15.60;99.90;;;;;;5110997;28;20020;-72
2021/06/13 04:41:07;;;;;;;11.95;9.65;;;15.60;99.90;;;;;;5117049;28;20072;-74
2021/06/13 04:43:35;;;;;;;14.63;10.20;;;15.60;99.90;;;;;;5117939;28;20012;-74
2021/06/13 04:46:01;;;;;;;16.92;10.38;;;15.60;99.90;;;;;;5107815;28;20106;-73
2021/06/13 04:48:27;;;;;;;12.95;9.10;;;15.50;99.90;;;;;;5090268;28;20012;-72
2021/06/13 04:50:53;;;;;;;12.82;8.68;;;15.60;99.90;;;;;;5117056;28;20019;-73
2021/06/13 04:53:54;;;;;;;12.13;9.25;;;15.50;99.90;;;;;;5117325;28;20021;-73
2021/06/13 04:56:45;;;;;;;10.50;9.13;;;15.50;99.90;;;;;;5103946;28;20028;-72
2021/06/13 04:59:11;;;;;;;12.55;9.13;;;15.40;99.90;;;;;;5081869;28;20030;-73
2021/06/13 05:01:41;;;;;;;11.88;9.63;;;15.40;99.90;;;;;;5075026;28;20418;-77
2021/06/13 05:04:07;;;;;;;11.05;9.55;;;15.50;99.90;;;;;;5093076;28;20099;-77
2021/06/13 05:06:33;;;;;;;12.18;8.43;;;15.50;99.90;;;;;;5093047;28;20019;-76
2021/06/13 05:08:59;;;;;;;12.48;8.48;;;15.60;99.90;;;;;;5093745;28;20025;-74
2021/06/13 05:11:25;;;;;;;15.10;8.65;;;15.70;99.90;;;;;;5093103;28;20024;-75
2021/06/13 05:13:51;;;;;;;12.50;8.40;;;15.70;99.90;;;;;;5106958;28;20093;-75
2021/06/13 05:16:17;;;;;;;10.63;8.95;;;15.80;99.90;;;;;;5076327;28;20393;-74
2021/06/13 05:18:42;;;;;;;12.65;9.05;;;15.80;99.90;;;;;;5092575;28;20046;-73
2021/06/13 05:21:08;;;;;;;10.95;8.68;;;15.90;99.90;;;;;;5092492;28;20042;-75
2021/06/13 05:23:34;;;;;;;15.70;8.80;;;15.90;99.90;;;;;;5092894;28;20020;-73
2021/06/13 05:26:00;;;;;;;8.98;7.95;;;15.90;99.90;;;;;;5074315;28;20115;-73
2021/06/13 05:28:26;;;;;;;12.88;6.78;;;15.90;99.90;;;;;;5092036;28;20035;-73
2021/06/13 05:30:53;;;;;;;13.32;6.03;;;15.90;99.90;;;;;;5091389;28;20123;-76
2021/06/13 05:33:19;;;;;;;16.38;7.20;;;16.00;99.90;;;;;;5092746;28;20090;-75
2021/06/13 05:35:46;;;;;;;8.60;5.90;;;16.20;99.90;;;;;;5091810;28;20532;-75
2021/06/13 05:38:12;;;;;;;8.60;5.25;;;16.60;99.90;;;;;;5092570;28;20024;-74
2021/06/13 05:40:38;;;;;;;6.72;5.43;;;16.70;99.90;;;;;;5092051;28;20382;-74
2021/06/13 05:43:06;;;;;;;8.70;6.78;;;16.90;99.90;;;;;;5092784;28;20020;-75
2021/06/13 05:45:32;;;;;;;13.15;5.57;;;17.00;99.90;;;;;;5092854;28;20024;-72
2021/06/13 05:47:58;;;;;;;9.45;5.13;;;17.00;99.90;;;;;;5093070;28;20028;-74
2021/06/13 05:50:25;;;;;;;8.43;5.03;;;17.00;99.90;;;;;;5092141;28;20073;-74
2021/06/13 05:52:51;;;;;;;8.85;4.90;;;17.00;99.90;;;;;;5092494;28;20038;-71
2021/06/13 05:55:18;;;;;;;10.48;4.32;;;17.10;99.90;;;;;;5091960;28;20024;-72
2021/06/13 05:57:45;;;;;;;7.53;4.75;;;16.90;99.90;;;;;;5092067;28;20024;-72
2021/06/13 06:00:12;;;;;;;14.10;5.32;;;16.80;99.90;;;;;;5091020;28;20493;-71
2021/06/13 06:02:39;;;;;;;7.13;4.03;;;16.90;99.90;;;;;;5091776;28;20040;-71
2021/06/13 06:05:06;;;;;;;5.75;3.80;;;17.00;99.90;;;;;;5091649;28;20024;-71
2021/06/13 06:07:32;;;;;;;7.35;4.35;;;17.00;99.90;;;;;;5091430;28;20027;-71
2021/06/13 06:09:58;;;;;;;10.68;4.82;;;17.00;99.90;;;;;;5091253;28;20389;-71
2021/06/13 06:12:24;;;;;;;11.02;5.15;;;17.20;99.90;;;;;;5091803;28;20031;-72
2021/06/13 06:14:49;;;;;;;8.95;4.05;;;17.10;99.90;;;;;;5072579;28;20557;-71
2021/06/13 06:17:15;;;;;;;6.28;3.90;;;17.10;99.90;;;;;;5084186;28;20032;-70
2021/06/13 06:19:41;;;;;;;7.15;3.80;;;17.10;99.90;;;;;;5080237;28;20024;-71
2021/06/13 06:22:08;;;;;;;7.00;4.28;;;17.10;99.90;;;;;;5086791;28;20063;-73
2021/06/13 06:24:34;;;;;;;8.10;4.03;;;17.20;99.90;;;;;;5072072;28;20440;-72
2021/06/13 06:27:00;;;;;;;11.85;4.45;;;17.20;99.90;;;;;;5070920;28;20486;-72
2021/06/13 06:29:26;;;;;;;5.93;4.28;;;17.30;99.90;;;;;;5070000;28;20043;-71
2021/06/13 06:31:52;;;;;;;8.15;4.10;;;17.40;99.90;;;;;;5070325;28;20032;-73
2021/06/13 06:34:17;;;;;;;5.00;3.85;;;17.60;99.90;;;;;;5070824;28;20029;-72
2021/06/13 06:36:43;;;;;;;7.50;4.25;;;17.70;99.90;;;;;;5052810;28;20035;-72
2021/06/13 06:39:09;;;;;;;10.75;4.63;;;17.70;99.90;;;;;;5070868;28;20502;-70
2021/06/13 06:41:38;;;;;;;9.77;4.57;;;17.60;99.90;;;;;;5070606;28;20024;-72
2021/06/13 06:44:06;;;;;;;6.68;4.22;;;17.70;99.90;;;;;;5071181;28;20024;-74
2021/06/13 06:46:32;;;;;;;7.57;4.45;;;17.80;99.90;;;;;;5074942;28;20039;-72
2021/06/13 06:48:58;;;;;;;9.82;4.72;;;18.00;99.90;;;;;;5078110;28;20048;-71
2021/06/13 06:51:25;;;;;;;8.30;4.10;;;18.30;99.90;;;;;;5094808;28;20063;-72
2021/06/13 06:53:50;;;;;;;4.35;3.75;;;18.50;99.90;;;;;;5095258;28;20474;-72
2021/06/13 06:56:16;;;;;;;7.45;4.28;;;18.50;99.90;;;;;;5095139;28;20032;-71
2021/06/13 06:58:42;;;;;;;7.90;4.97;;;18.30;99.90;;;;;;5095131;28;20103;-72
2021/06/13 07:01:07;;;;;;;7.80;4.15;;;18.30;99.90;;;;;;5094277;28;20040;-72
2021/06/13 07:03:34;;;;;;;10.57;4.35;;;18.30;99.90;;;;;;5094870;28;20077;-72
2021/06/13 07:06:00;;;;;;;9.25;4.20;;;18.60;99.90;;;;;;5095086;28;20020;-72
2021/06/13 07:08:25;;;;;;;7.38;4.20;;;18.80;99.90;;;;;;5092269;28;20107;-72
2021/06/13 07:10:51;;;;;;;7.55;3.67;;;18.70;99.90;;;;;;5056215;28;20020;-71
2021/06/13 07:13:17;;;;;;;7.63;3.58;;;18.90;99.90;;;;;;5093180;28;20024;-71
2021/06/13 07:15:42;;;;;;;8.95;4.22;;;19.20;99.90;;;;;;5094117;28;20031;-72
2021/06/13 07:18:08;;;;;;;6.95;3.97;;;19.40;99.90;;;;;;5094774;28;20027;-72
2021/06/13 07:20:35;;;;;;;10.57;4.90;;;19.50;99.90;;;;;;5075968;28;20031;-73
2021/06/13 07:23:01;;;;;;;9.88;3.53;;;19.90;99.90;;;;;;5094723;28;20107;-72
2021/06/13 07:25:28;;;;;;;9.98;3.85;;;20.00;99.90;;;;;;5094656;28;20105;-76
2021/06/13 07:27:54;;;;;;;9.10;3.30;;;19.90;99.90;;;;;;5094446;28;20443;-73
2021/06/13 07:30:21;;;;;;;9.80;3.70;;;20.10;99.90;;;;;;5075311;28;20051;-73
2021/06/13 07:32:47;;;;;;;7.82;3.92;;;20.10;99.90;;;;;;5094502;28;20398;-73
2021/06/13 07:35:13;;;;;;;7.13;4.05;;;20.40;99.90;;;;;;5075842;28;20038;-73
2021/06/13 07:37:42;;;;;;;6.32;3.50;;;20.20;99.90;;;;;;5096752;28;20028;-72
2021/06/13 07:40:10;;;;;;;6.13;4.18;;;20.20;99.90;;;;;;5105689;28;20099;-72
2021/06/13 07:42:36;;;;;;;9.15;3.80;;;20.50;99.90;;;;;;5087625;28;20054;-73
2021/06/13 07:45:05;;;;;;;7.35;4.05;;;20.30;99.90;;;;;;5106276;28;20067;-71
2021/06/13 07:47:31;;;;;;;7.65;3.92;;;20.20;99.90;;;;;;5106135;28;20393;-71
2021/06/13 07:49:58;;;;;;;7.97;3.67;;;20.30;99.90;;;;;;5105168;28;20076;-71
2021/06/13 07:52:25;;;;;;;7.05;4.22;;;20.10;99.90;;;;;;5106489;28;20035;-72
2021/06/13 07:54:50;;;;;;;5.65;3.45;;;19.60;99.90;;;;;;5082507;28;20028;-73
2021/06/13 07:57:16;;;;;;;8.45;3.70;;;19.60;99.90;;;;;;5104815;28;20107;-71
2021/06/13 07:59:42;;;;;;;7.18;3.40;;;20.00;99.90;;;;;;5090802;28;20040;-72
2021/06/13 08:02:10;;;;;;;10.50;4.32;;;20.10;99.90;;;;;;5107792;28;20118;-73
2021/06/13 08:04:38;;;;;;;14.15;4.18;;;20.50;99.90;;;;;;5086216;28;20031;-72
2021/06/13 08:07:07;;;;;;;5.38;3.38;;;20.80;99.90;;;;;;5104758;28;20052;-74
2021/06/13 08:09:33;;;;;;;8.25;3.80;;;21.10;99.90;;;;;;5105329;28;20043;-71
2021/06/13 08:11:58;;;;;;;7.38;4.10;;;20.90;99.90;;;;;;5105066;28;20028;-73
2021/06/13 08:14:24;;;;;;;8.27;3.80;;;21.10;99.90;;;;;;5085742;28;20107;-71
2021/06/13 08:16:50;;;;;;;5.63;3.78;;;21.60;99.90;;;;;;5101521;28;20089;-74
2021/06/13 08:19:15;;;;;;;7.57;4.03;;;21.80;99.90;;;;;;5084690;28;20450;-71
2021/06/13 08:21:41;;;;;;;6.97;3.67;;;21.50;99.90;;;;;;5084261;28;20020;-72
2021/06/13 08:24:09;;;;;;;5.88;3.47;;;21.40;99.90;;;;;;5102946;28;20064;-74
2021/06/13 08:26:35;;;;;;;4.40;3.40;;;21.30;99.90;;;;;;5105150;28;20023;-72
2021/06/13 08:29:01;;;;;;;10.93;3.67;;;21.30;99.90;;;;;;5103913;28;20089;-74
2021/06/13 08:31:27;;;;;;;7.32;3.72;;;21.60;99.90;;;;;;5086274;28;20032;-74
2021/06/13 08:33:54;;;;;;;4.80;3.78;;;22.10;99.90;;;;;;5074112;28;20020;-73
2021/06/13 08:36:19;;;;;;;9.50;3.70;;;22.40;99.90;;;;;;5083061;28;20029;-72
2021/06/13 08:38:45;;;;;;;7.47;3.55;;;22.70;99.90;;;;;;5065328;28;20031;-75
2021/06/13 08:41:12;;;;;;;7.78;3.53;;;22.90;99.90;;;;;;5084592;28;20074;-74
2021/06/13 08:43:38;;;;;;;4.65;2.95;;;22.80;99.90;;;;;;5104272;28;20020;-72
2021/06/13 08:46:04;;;;;;;8.77;3.35;;;23.00;99.90;;;;;;5099579;28;20030;-73
2021/06/13 08:48:31;;;;;;;8.35;3.70;;;23.20;99.90;;;;;;5083181;28;20031;-74
2021/06/13 08:50:59;;;;;;;6.25;3.45;;;23.00;99.90;;;;;;5099110;28;20091;-73
2021/06/13 08:53:25;;;;;;;8.82;2.72;;;23.10;99.40;;;;;;5097065;28;20024;-73
2021/06/13 08:55:51;;;;;;;6.13;2.72;;;23.20;99.90;;;;;;5096132;28;20060;-75
2021/06/13 08:58:18;;;;;;;4.20;2.47;;;23.70;98.90;;;;;;5096947;28;20026;-75
2021/06/13 09:00:45;;;;;;;4.45;2.45;;;23.80;99.80;;;;;;5095116;28;20024;-74
2021/06/13 09:03:13;;;;;;;8.20;2.90;;;24.80;98.90;;;;;;5097121;28;20020;-76
2021/06/13 09:05:39;;;;;;;4.30;2.55;;;25.40;94.00;;;;;;5098229;28;20067;-72
2021/06/13 09:08:13;;;;;;;3.90;2.28;;;25.40;95.30;;;;;;5078648;28;20038;-74
2021/06/13 09:10:42;;;;;;;6.28;2.30;;;25.50;95.10;;;;;;5092822;28;20028;-74
2021/06/13 09:13:16;;;;;;;7.00;2.42;;;26.20;93.70;;;;;;5094067;28;20016;-73
2021/06/13 09:15:50;;;;;;;6.13;2.30;;;27.40;90.70;;;;;;5079338;28;20060;-74
2021/06/13 09:18:38;;;;;;;5.55;2.35;;;27.00;91.40;;;;;;5099044;28;20016;-76
2021/06/13 09:21:13;;;;;;;5.20;2.03;;;27.40;89.10;;;;;;5081186;28;20046;-75
2021/06/13 09:23:40;;;;;;;5.90;2.22;;;26.50;84.30;;;;;;5101802;28;20046;-74
2021/06/13 09:26:12;;;;;;;3.33;1.77;;;26.90;86.60;;;;;;5100720;28;20020;-74
2021/06/13 09:28:42;;;;;;;5.07;1.90;;;26.70;87.10;;;;;;5097808;28;20020;-74
2021/06/13 09:31:19;;;;;;;2.35;1.58;;;26.80;88.50;;;;;;5077001;28;20024;-73
2021/06/13 09:33:46;;;;;;;3.67;1.70;;;27.80;86.30;;;;;;5096158;28;20016;-73
2021/06/13 09:36:16;;;;;;;3.05;1.75;;;28.50;80.30;;;;;;5094881;28;20017;-74
2021/06/13 09:38:44;;;;;;;5.17;1.50;;;29.00;79.60;;;;;;5095054;28;20020;-74
2021/06/13 09:41:19;;;;;;;5.32;2.10;;;28.90;75.00;;;;;;5076278;28;20312;-75
2021/06/13 09:43:47;;;;;;;3.25;1.70;;;27.90;74.70;;;;;;5078925;28;20024;-73
2021/06/13 09:46:15;;;;;;;2.17;1.40;;;27.50;75.40;;;;;;5077195;28;20485;-73
2021/06/13 09:48:44;;;;;;;5.97;1.95;;;27.50;78.80;;;;;;5096161;28;20624;-73
2021/06/13 09:51:34;;;;;;;4.28;1.60;;;29.40;71.10;;;;;;5093980;28;20028;-74
2021/06/13 09:54:05;;;;;;;3.00;1.70;;;28.10;75.30;;;;;;5093324;28;20506;-73
2021/06/13 09:56:36;;;;;;;5.65;1.83;;;27.80;77.20;;;;;;5075815;28;20056;-74
2021/06/13 09:59:12;;;;;;;3.33;1.92;;;28.20;76.60;;;;;;5074918;28;20028;-73
2021/06/13 10:01:43;;;;;;;3.17;1.80;;;29.10;71.80;;;;;;5091376;28;20020;-73
2021/06/13 10:04:17;;;;;;;2.40;1.40;;;28.60;73.80;;;;;;5093135;28;20108;-73
2021/06/13 10:06:46;;;;;;;4.78;1.77;;;27.80;76.10;;;;;;5074083;28;20052;-75
2021/06/13 10:09:12;;;;;;;2.58;1.60;;;26.60;76.10;;;;;;5092139;28;20085;-75
2021/06/13 10:11:39;;;;;;;4.40;1.88;;;26.10;75.30;;;;;;5091576;28;20023;-74
2021/06/13 10:14:13;;;;;;;4.55;1.80;;;25.90;77.50;;;;;;5092076;28;20023;-74
2021/06/13 10:16:44;;;;;;;3.38;2.00;;;26.40;78.60;;;;;;5125065;22;20058;-69
2021/06/13 10:19:16;;;;;;;4.40;1.80;;;26.50;74.30;;;;;;5076090;28;20462;-70
2021/06/13 10:22:02;;;;;;;2.22;1.30;;;27.00;77.70;;;;;;5070712;28;20017;-71
2021/06/13 10:24:30;;;;;;;2.97;1.80;;;27.50;70.40;;;;;;5078821;28;20100;-71
2021/06/13 10:26:59;;;;;;;2.08;1.50;;;27.80;74.90;;;;;;5074695;28;20358;-71
2021/06/13 10:29:27;;;;;;;3.33;1.60;;;27.90;74.50;;;;;;5070947;28;20082;-70
2021/06/13 10:31:56;;;;;;;4.88;1.52;;;27.90;76.70;;;;;;5070878;28;20028;-71
2021/06/13 10:34:22;;;;;;;2.33;1.58;;;27.80;70.10;;;;;;5071094;28;20028;-72
2021/06/13 10:36:49;;;;;;;2.63;1.65;;;27.40;72.40;;;;;;5069971;28;20025;-71
2021/06/13 10:39:19;;;;;;;2.85;1.67;;;26.50;73.10;;;;;;5070938;28;20394;-72
2021/06/13 10:41:46;;;;;;;2.17;1.70;;;26.80;72.60;;;;;;5084064;28;20028;-71
2021/06/13 10:44:15;;;;;;;3.25;1.42;;;26.80;73.00;;;;;;5069461;28;20518;-72
2021/06/13 10:46:44;;;;;;;4.15;1.75;;;27.00;73.60;;;;;;5068982;28;20032;-71
2021/06/13 10:49:38;;;;;;;5.35;1.83;;;26.90;74.60;;;;;;5090383;28;20031;-72
2021/06/13 10:52:03;;;;;;;5.53;1.60;;;27.10;75.30;;;;;;5060427;28;20067;-71
2021/06/13 10:54:52;;;;;;;5.00;1.65;;;27.40;71.30;;;;;;5088970;28;20492;-71
2021/06/13 10:57:17;;;;;;;2.80;1.30;;;27.80;71.50;;;;;;5091131;28;20028;-70
2021/06/13 10:59:55;;;;;;;3.53;1.67;;;27.70;68.60;;;;;;5090386;28;20493;-72
2021/06/13 11:02:24;;;;;;;4.50;1.52;;;27.70;70.30;;;;;;5072371;28;20107;-72
2021/06/13 11:04:54;;;;;;;4.20;1.70;;;27.90;70.20;;;;;;5070737;28;20028;-70
2021/06/13 11:07:29;;;;;;;1.80;1.17;;;27.80;71.50;;;;;;5071240;28;20028;-73
2021/06/13 11:10:10;;;;;;;2.78;1.50;;;27.80;65.10;;;;;;5070347;28;20112;-73
2021/06/13 11:13:01;;;;;;;2.50;1.55;;;27.80;68.00;;;;;;5052738;28;20036;-71
2021/06/13 11:15:38;;;;;;;2.63;1.25;;;28.30;69.40;;;;;;5070828;28;20028;-72
2021/06/13 11:18:15;;;;;;;7.13;1.30;;;28.80;69.10;;;;;;5070858;28;20032;-71
2021/06/13 11:21:02;;;;;;;3.75;1.58;;;28.20;66.90;;;;;;5070683;28;20024;-72
2021/06/13 11:23:27;;;;;;;5.75;1.60;;;27.90;67.80;;;;;;5071561;28;20101;-71
2021/06/13 11:25:57;;;;;;;2.50;1.38;;;27.50;66.20;;;;;;5090689;28;20036;-72
2021/06/13 11:28:33;;;;;;;2.13;1.50;;;26.90;69.20;;;;;;5091305;28;20517;-71
2021/06/13 11:31:08;;;;;;;2.17;1.25;;;27.50;69.30;;;;;;5073603;28;20035;-71
2021/06/13 11:33:37;;;;;;;2.55;1.25;;;27.50;67.90;;;;;;5102283;28;20038;-71
2021/06/13 11:36:26;;;;;;;4.60;1.40;;;27.50;64.90;;;;;;5104568;28;20032;-72
2021/06/13 11:39:02;;;;;;;2.80;1.60;;;26.10;65.80;;;;;;5104549;28;20103;-71
2021/06/13 11:41:39;;;;;;;4.05;1.70;;;25.30;69.50;;;;;;5104927;28;20027;-71
2021/06/13 11:44:07;;;;;;;2.65;1.50;;;26.40;69.70;;;;;;5104391;28;20032;-71
2021/06/13 11:46:33;;;;;;;2.03;1.58;;;27.10;68.10;;;;;;5103836;28;20062;-71
2021/06/13 11:49:01;;;;;;;1.83;1.08;;;28.00;68.70;;;;;;5103419;28;20036;-71
2021/06/13 11:51:26;;;;;;;2.53;1.42;;;28.30;63.40;;;;;;5102433;28;20035;-71
2021/06/13 11:53:57;;;;;;;1.55;1.40;;;27.80;63.30;;;;;;5103991;28;20020;-71
2021/06/13 11:56:35;;;;;;;3.28;1.25;;;27.80;66.30;;;;;;5102407;28;20070;-72
2021/06/13 11:59:08;;;;;;;5.72;1.45;;;28.60;61.70;;;;;;5103774;28;20423;-72
2021/06/13 12:01:37;;;;;;;3.03;1.30;;;28.50;63.50;;;;;;5101927;28;20020;-71
2021/06/13 12:04:10;;;;;;;3.05;1.40;;;28.70;61.60;;;;;;5102484;28;20878;-70
2021/06/13 12:06:37;;;;;;;3.10;1.35;;;28.90;62.90;;;;;;5084538;28;20035;-72
2021/06/13 12:09:12;;;;;;;5.00;1.42;;;28.60;59.30;;;;;;5102563;28;20370;-72
2021/06/13 12:12:00;;;;;;;2.17;1.55;;;28.40;62.00;;;;;;5103026;28;20030;-72
2021/06/13 12:14:26;;;;;;;1.92;1.30;;;28.70;61.40;;;;;;5102284;28;20077;-71
2021/06/13 12:17:12;;;;;;;2.72;1.75;;;28.70;63.40;;;;;;5103280;28;20028;-71
2021/06/13 12:19:44;;;;;;;4.70;1.52;;;28.60;59.90;;;;;;5103270;28;20028;-71
2021/06/13 12:27:22;;;;;;;4.35;1.60;;;28.50;62.00;;;;;;5103121;28;20742;-71
2021/06/13 12:29:56;;;;;;;2.88;1.33;;;28.10;61.60;;;;;;5102249;28;20466;-72
2021/06/13 12:32:22;;;;;;;2.90;1.40;;;28.70;63.00;;;;;;5102896;28;20466;-71
2021/06/13 12:34:54;;;;;;;1.52;1.38;;;28.80;60.90;;;;;;5100555;28;20047;-71
2021/06/13 12:37:24;;;;;;;2.85;1.40;;;28.80;60.00;;;;;;5102046;28;20560;-71
2021/06/13 12:39:55;;;;;;;1.15;0.80;;;29.10;61.30;;;;;;5101225;28;20066;-72
2021/06/13 12:42:20;;;;;;;1.38;0.70;;;29.50;56.40;;;;;;5083961;28;20027;-72
2021/06/13 12:44:46;;;;;;;2.97;1.25;;;28.20;55.60;;;;;;5103941;28;20605;-72
2021/06/13 12:47:16;;;;;;;2.35;0.90;;;28.50;56.70;;;;;;5102095;28;20118;-73
2021/06/13 12:49:44;;;;;;;2.08;0.82;;;29.00;57.20;;;;;;5101572;28;20116;-74
2021/06/13 12:52:18;;;;;;;4.82;1.08;;;29.50;55.10;;;;;;5102577;28;20043;-74
2021/06/13 12:54:57;;;;;;;3.55;1.08;;;30.20;53.60;;;;;;5101869;28;20055;-72
2021/06/13 12:57:24;;;;;;;2.38;1.02;;;30.10;53.70;;;;;;5097984;28;20078;-72